Time;durP1;ratioP1;P1;durP2;ratioP2;P2;SDS_P1;SDS_P2;PMS_P1;PMS_P2;Temp;Humidity;BMP_temperature;BMP_pressure;BME280_temperature;BME280_humidity;BME280_pressure;Samples;Min_cycle;Max_cycle;Signal;HPM_P1;HPM_P2
2023/09/02 00:01:26;;;;;;;6.78;3.90;;;;;;;18.29;89.02;98364.06;4896637;29;20404;-72
2023/09/02 00:03:51;;;;;;;6.47;3.90;;;;;;;18.32;89.20;98359.97;4896195;29;20109;-71
2023/09/02 00:06:17;;;;;;;7.88;3.72;;;;;;;18.18;89.09;98342.66;4895225;29;20116;-70
2023/09/02 00:08:42;;;;;;;3.95;3.60;;;;;;;18.34;89.22;98360.47;4895100;29;20168;-71
2023/09/02 00:11:08;;;;;;;6.22;3.75;;;;;;;18.28;88.67;98342.53;4894832;29;20048;-71
2023/09/02 00:13:33;;;;;;;6.93;3.90;;;;;;;18.33;89.16;98350.66;4893192;29;20048;-70
2023/09/02 00:15:58;;;;;;;5.60;3.63;;;;;;;18.34;88.88;98344.13;4879381;29;20040;-71
2023/09/02 00:18:24;;;;;;;4.88;3.45;;;;;;;18.30;88.70;98340.31;4879143;29;20044;-71
2023/09/02 00:20:49;;;;;;;4.43;3.67;;;;;;;18.34;88.83;98344.13;4879206;29;20037;-71
2023/09/02 00:23:14;;;;;;;7.07;3.40;;;;;;;18.28;88.63;98342.53;4895871;29;20140;-72
2023/09/02 00:25:40;;;;;;;4.65;3.60;;;;;;;18.28;88.86;98334.34;4896163;29;20076;-73
2023/09/02 00:28:05;;;;;;;6.00;3.30;;;;;;;18.31;88.86;98341.97;4879221;29;20059;-71
2023/09/02 00:30:31;;;;;;;4.60;4.13;;;;;;;18.22;88.93;98332.78;4863868;29;20491;-73
2023/09/02 00:32:56;;;;;;;5.03;3.50;;;;;;;18.34;88.69;98346.84;4895520;29;20047;-73
2023/09/02 00:35:22;;;;;;;10.73;5.03;;;;;;;18.15;88.92;98332.34;4879290;29;20505;-71
2023/09/02 00:37:47;;;;;;;6.63;4.68;;;;;;;18.21;88.89;98342.06;4871391;29;20040;-72
2023/09/02 00:40:15;;;;;;;5.03;4.13;;;;;;;18.25;88.97;98356.75;4894643;29;20036;-72
2023/09/02 00:42:41;;;;;;;6.60;4.05;;;;;;;18.10;89.24;98330.47;4878846;29;20033;-72
2023/09/02 00:45:07;;;;;;;8.57;4.60;;;;;;;18.21;88.90;98347.50;4894675;29;20020;-72
2023/09/02 00:47:32;;;;;;;9.63;5.45;;;;;;;18.12;89.03;98332.91;4894461;29;20069;-72
2023/09/02 00:50:00;;;;;;;6.25;4.93;;;;;;;18.21;88.96;98352.97;4895823;29;20093;-72
2023/09/02 00:52:25;;;;;;;7.35;4.90;;;;;;;18.08;89.16;98337.31;4894348;29;20044;-72
2023/09/02 00:54:50;;;;;;;11.65;5.78;;;;;;;18.13;89.29;98361.81;4894581;29;20082;-71
2023/09/02 00:57:16;;;;;;;8.88;5.60;;;;;;;18.11;89.16;98355.81;4894374;29;20049;-72
2023/09/02 00:59:41;;;;;;;9.90;6.10;;;;;;;17.74;88.77;98305.50;4879032;29;20116;-72
2023/09/02 01:02:07;;;;;;;10.02;5.72;;;;;;;17.86;89.31;98327.72;4894136;29;20036;-71
2023/09/02 01:04:34;;;;;;;13.45;5.88;;;;;;;18.04;89.18;98358.09;4878971;29;20028;-72
2023/09/02 01:07:01;;;;;;;9.50;5.95;;;;;;;17.90;89.31;98338.84;4878873;29;20131;-72
2023/09/02 01:09:26;;;;;;;7.35;4.82;;;;;;;17.92;89.36;98345.63;4894615;29;20105;-71
2023/09/02 01:11:52;;;;;;;7.22;4.88;;;;;;;17.95;89.41;98349.69;4878616;29;20040;-72
2023/09/02 01:14:18;;;;;;;10.25;5.78;;;;;;;17.93;89.32;98350.00;4878964;29;20391;-72
2023/09/02 01:16:44;;;;;;;11.57;5.95;;;;;;;17.91;89.35;98365.84;4894256;29;20044;-72
2023/09/02 01:19:13;;;;;;;7.20;5.00;;;;;;;17.85;89.36;98358.78;4895654;29;20036;-72
2023/09/02 01:21:49;;;;;;;11.73;7.00;;;;;;;17.79;89.06;98346.31;4897455;29;20042;-72
2023/09/02 01:24:37;;;;;;;8.07;5.40;;;;;;;17.83;89.39;98369.16;4882339;29;20040;-70
2023/09/02 01:27:13;;;;;;;6.68;5.70;;;;;;;17.83;89.06;98358.25;4897911;29;20032;-74
2023/09/02 01:29:52;;;;;;;10.10;6.18;;;;;;;17.85;89.40;98375.13;4882156;29;20550;-71
2023/09/02 01:32:19;;;;;;;12.48;7.93;;;;;;;17.72;90.33;98367.63;4881671;29;20048;-71
2023/09/02 01:34:46;;;;;;;9.57;6.82;;;;;;;17.69;89.84;98370.91;4881980;29;20158;-71
2023/09/02 01:37:12;;;;;;;7.57;5.50;;;;;;;17.74;89.83;98376.34;4881927;29;20523;-71
2023/09/02 01:39:37;;;;;;;8.80;5.70;;;;;;;17.68;89.77;98366.59;4897773;29;20128;-70
2023/09/02 01:42:05;;;;;;;10.38;5.53;;;;;;;17.74;89.58;98376.34;4881828;29;20032;-71
2023/09/02 01:44:31;;;;;;;6.65;5.38;;;;;;;17.70;89.67;98375.28;4881939;29;20020;-71
2023/09/02 01:46:56;;;;;;;8.55;6.82;;;;;;;17.69;89.70;98376.38;4898717;29;20037;-72
2023/09/02 01:49:22;;;;;;;9.07;6.20;;;;;;;17.67;89.81;98381.28;4881803;29;20128;-69
2023/09/02 01:51:48;;;;;;;8.15;6.00;;;;;;;17.59;89.92;98368.31;4897287;29;20044;-75
2023/09/02 01:54:13;;;;;;;7.88;6.20;;;;;;;17.64;89.87;98381.84;4866215;29;20028;-72
2023/09/02 01:56:39;;;;;;;8.43;6.53;;;;;;;17.62;89.67;98386.00;4881634;29;20124;-70
2023/09/02 01:59:05;;;;;;;14.75;8.95;;;;;;;17.52;89.81;98384.16;4881524;29;20063;-70
2023/09/02 02:01:30;;;;;;;8.27;7.03;;;;;;;17.46;89.46;98382.53;4881491;29;20117;-71
2023/09/02 02:04:02;;;;;;;270.60;20.23;;;;;;;17.39;89.45;98384.75;4881394;29;20073;-73
2023/09/02 02:06:29;;;;;;;521.35;24.92;;;;;;;17.31;89.95;98390.81;4881533;29;20583;-70
2023/09/02 02:09:04;;;;;;;704.47;30.52;;;;;;;17.26;89.79;98385.41;4897096;29;20042;-70
2023/09/02 02:11:35;;;;;;;360.17;17.40;;;;;;;17.22;89.92;98401.47;4896915;29;20411;-69
2023/09/02 02:14:05;;;;;;;66.88;7.00;;;;;;;17.18;89.88;98394.97;4896784;29;20456;-71
2023/09/02 02:16:31;;;;;;;13.90;6.95;;;;;;;17.03;89.72;98370.59;4897016;29;20123;-71
2023/09/02 02:18:57;;;;;;;7.80;6.10;;;;;;;17.13;89.55;98388.75;4898279;29;20054;-69
2023/09/02 02:21:23;;;;;;;9.05;6.18;;;;;;;17.03;89.19;98381.47;4896590;29;20043;-71
2023/09/02 02:23:50;;;;;;;6.03;5.25;;;;;;;17.05;89.29;98389.34;4896872;29;20035;-72
2023/09/02 02:26:15;;;;;;;5.72;5.10;;;;;;;16.98;89.27;98394.28;4896897;29;20040;-74
2023/09/02 02:28:41;;;;;;;9.80;6.40;;;;;;;16.85;89.59;98392.97;4880561;29;20047;-73
2023/09/02 02:31:07;;;;;;;19.13;6.88;;;;;;;16.81;89.42;98394.66;4895624;29;20081;-74
2023/09/02 02:33:33;;;;;;;9.00;6.25;;;;;;;16.71;89.75;98383.00;4896117;29;20127;-74
2023/09/02 02:35:58;;;;;;;9.23;6.15;;;;;;;16.75;89.48;98394.94;4880970;29;20068;-72
2023/09/02 02:38:23;;;;;;;7.13;5.75;;;;;;;16.77;89.43;98399.03;4897719;29;20060;-74
2023/09/02 02:40:49;;;;;;;7.35;5.45;;;;;;;16.76;89.04;98402.00;4881009;29;20036;-73
2023/09/02 02:43:14;;;;;;;8.15;5.80;;;;;;;16.73;88.93;98399.88;4896175;29;20052;-69
2023/09/02 02:45:41;;;;;;;6.00;5.38;;;;;;;16.66;89.00;98393.91;4896416;29;20092;-70
2023/09/02 02:48:07;;;;;;;6.25;5.10;;;;;;;16.70;88.86;98414.00;4880820;29;20020;-72
2023/09/02 02:50:36;;;;;;;6.35;5.63;;;;;;;16.53;88.67;98377.09;4880782;29;20072;-72
2023/09/02 02:53:02;;;;;;;8.10;5.70;;;;;;;16.68;88.78;98402.59;4895947;29;20093;-72
2023/09/02 02:55:27;;;;;;;7.85;5.68;;;;;;;16.67;88.67;98411.84;4880640;29;20044;-72
2023/09/02 02:57:52;;;;;;;8.70;5.40;;;;;;;16.65;88.50;98405.88;4896103;29;20033;-72
2023/09/02 03:00:18;;;;;;;5.88;4.95;;;;;;;16.62;88.20;98409.16;4897513;29;20037;-73
2023/09/02 03:02:43;;;;;;;6.05;5.18;;;;;;;16.57;88.23;98410.78;4895384;29;20079;-71
2023/09/02 03:05:09;;;;;;;8.38;4.65;;;;;;;16.54;88.12;98414.09;4880384;29;20036;-72
2023/09/02 03:07:35;;;;;;;8.35;4.90;;;;;;;16.51;88.42;98409.19;4895898;29;20031;-72
2023/09/02 03:10:00;;;;;;;5.82;4.68;;;;;;;16.50;88.10;98410.22;4872575;29;20044;-72
2023/09/02 03:12:26;;;;;;;6.28;5.00;;;;;;;16.47;88.33;98427.13;4880117;29;20035;-73
2023/09/02 03:14:52;;;;;;;7.38;4.47;;;;;;;16.45;87.87;98421.13;4897133;29;20037;-72
2023/09/02 03:17:20;;;;;;;5.50;4.75;;;;;;;16.43;87.79;98431.47;4895751;29;20118;-74
2023/09/02 03:19:48;;;;;;;6.30;5.55;;;;;;;16.43;87.71;98430.66;4886652;29;20043;-73
2023/09/02 03:22:15;;;;;;;7.43;4.68;;;;;;;16.33;87.70;98420.63;4895561;29;20051;-71
2023/09/02 03:24:42;;;;;;;7.18;4.88;;;;;;;16.31;86.87;98422.00;4880137;29;20096;-72
2023/09/02 03:27:08;;;;;;;6.65;4.63;;;;;;;16.30;87.51;98421.19;4895604;29;20048;-73
2023/09/02 03:29:34;;;;;;;7.45;5.90;;;;;;;16.32;87.52;98435.31;4880202;29;20051;-71
2023/09/02 03:32:01;;;;;;;13.55;7.47;;;;;;;16.33;87.39;98436.94;4880351;29;20998;-71
2023/09/02 03:34:27;;;;;;;9.50;8.00;;;;;;;16.34;87.53;98438.56;4895651;29;20040;-70
2023/09/02 03:36:53;;;;;;;9.18;6.78;;;;;;;16.34;87.38;98438.56;4879775;29;20033;-72
2023/09/02 03:39:18;;;;;;;7.68;6.53;;;;;;;16.30;87.23;98432.06;4895480;29;20041;-71
2023/09/02 03:41:47;;;;;;;9.77;6.45;;;;;;;16.26;87.32;98422.81;4895151;29;20134;-72
2023/09/02 03:44:12;;;;;;;27.60;8.07;;;;;;;16.40;87.65;98445.63;4895158;29;20119;-71
2023/09/02 03:46:39;;;;;;;8.90;7.30;;;;;;;16.40;87.66;98433.94;4879740;29;20050;-70
2023/09/02 03:49:04;;;;;;;10.43;7.28;;;;;;;16.51;88.04;98447.25;4896715;29;20036;-75
2023/09/02 03:51:31;;;;;;;92.72;14.70;;;;;;;16.54;88.23;98454.88;4879425;29;20406;-74
2023/09/02 03:53:58;;;;;;;14.13;9.32;;;;;;;16.53;88.15;98441.53;4895338;29;20039;-72
2023/09/02 03:56:24;;;;;;;10.02;7.95;;;;;;;16.58;88.35;98447.78;4894952;29;20032;-72
2023/09/02 03:58:50;;;;;;;9.00;6.35;;;;;;;16.53;88.29;98444.25;4895238;29;20043;-72
2023/09/02 04:01:16;;;;;;;8.07;7.13;;;;;;;16.62;88.42;98455.41;4879282;29;20482;-72
2023/09/02 04:03:41;;;;;;;7.40;5.32;;;;;;;16.63;88.71;98446.94;4885721;29;20065;-73
2023/09/02 04:06:10;;;;;;;11.25;6.25;;;;;;;16.66;88.43;98451.03;4879537;29;20024;-71
2023/09/02 04:08:36;;;;;;;9.55;5.97;;;;;;;16.70;88.30;98462.97;4894994;29;20108;-70
2023/09/02 04:11:02;;;;;;;8.85;6.32;;;;;;;16.70;88.69;98457.53;4894749;29;20124;-72
2023/09/02 04:13:29;;;;;;;7.18;5.65;;;;;;;16.68;88.47;98455.09;4895048;29;20096;-71
2023/09/02 04:15:57;;;;;;;7.40;6.05;;;;;;;16.75;88.56;98462.94;4879430;29;20120;-72
2023/09/02 04:18:24;;;;;;;7.60;6.57;;;;;;;16.69;89.16;98455.88;4894920;29;20491;-73
2023/09/02 04:20:51;;;;;;;7.05;6.35;;;;;;;16.82;88.86;98472.44;4879440;29;20051;-71
2023/09/02 04:23:17;;;;;;;10.45;6.10;;;;;;;16.88;89.00;98470.50;4873921;29;20072;-73
2023/09/02 04:25:47;;;;;;;7.47;6.57;;;;;;;16.88;88.81;98471.31;4894855;29;20810;-74
2023/09/02 04:28:14;;;;;;;10.52;7.43;;;;;;;16.84;88.86;98453.13;4879364;29;20452;-74
2023/09/02 04:30:40;;;;;;;14.48;8.30;;;;;;;16.88;89.34;98471.31;4879262;29;20036;-71
2023/09/02 04:33:05;;;;;;;9.25;7.35;;;;;;;16.90;89.36;98473.75;4894412;29;20514;-74
2023/09/02 04:35:38;;;;;;;9.55;7.55;;;;;;;16.86;89.09;98473.50;4894757;29;20123;-72
2023/09/02 04:38:05;;;;;;;8.70;7.28;;;;;;;16.89;89.32;98485.75;4879004;29;20479;-73
2023/09/02 04:40:38;;;;;;;14.73;7.82;;;;;;;16.92;88.96;98485.22;4878916;29;20025;-72
2023/09/02 04:43:05;;;;;;;9.48;6.75;;;;;;;16.92;89.08;98496.88;4898044;29;20032;-72
2023/09/02 04:45:33;;;;;;;8.90;7.10;;;;;;;16.87;89.36;98496.91;4888032;29;20048;-72
2023/09/02 04:48:03;;;;;;;12.38;7.93;;;;;;;16.85;89.48;98501.81;4879241;29;20035;-71
2023/09/02 04:50:31;;;;;;;10.07;7.30;;;;;;;16.86;89.30;98506.16;4863902;29;20042;-72
2023/09/02 04:52:58;;;;;;;7.18;6.47;;;;;;;16.88;89.40;98508.59;4879022;29;20028;-73
2023/09/02 04:55:27;;;;;;;10.45;8.23;;;;;;;16.84;89.55;98504.81;4880632;29;20052;-73
2023/09/02 04:57:54;;;;;;;8.23;5.00;;;;;;;16.85;89.13;98504.53;4898482;29;20040;-70
2023/09/02 05:00:28;;;;;;;11.57;5.68;;;;;;;16.78;89.24;98503.22;4882735;29;20040;-72
2023/09/02 05:02:54;;;;;;;10.20;5.78;;;;;;;16.76;89.34;98514.34;4882424;29;20509;-73
2023/09/02 05:05:21;;;;;;;6.35;4.47;;;;;;;16.69;89.37;98523.88;4898170;29;20057;-73
2023/09/02 05:07:47;;;;;;;4.93;3.50;;;;;;;16.63;89.27;98517.66;4885638;29;20040;-74
2023/09/02 05:10:14;;;;;;;7.18;3.60;;;;;;;16.59;89.18;98516.59;4882502;29;20123;-74
2023/09/02 05:12:40;;;;;;;7.68;4.22;;;;;;;16.52;89.30;98511.41;4882244;29;20037;-74
2023/09/02 05:15:07;;;;;;;12.20;5.10;;;;;;;16.57;89.29;98524.16;4882279;29;20039;-74
2023/09/02 05:17:33;;;;;;;61.90;6.65;;;;;;;16.54;89.55;98531.00;4882269;29;20033;-74
2023/09/02 05:19:59;;;;;;;10.98;6.57;;;;;;;16.63;89.50;98538.59;4874138;29;20054;-74
2023/09/02 05:22:24;;;;;;;25.77;6.68;;;;;;;16.62;89.47;98537.75;4899008;29;20044;-74
2023/09/02 05:24:50;;;;;;;14.90;8.90;;;;;;;16.68;89.88;98538.59;4897721;29;20497;-74
2023/09/02 05:27:15;;;;;;;22.52;8.02;;;;;;;16.70;89.74;98541.84;4897721;29;20479;-74
2023/09/02 05:29:41;;;;;;;19.73;9.27;;;;;;;16.69;89.91;98540.19;4897709;29;20040;-75
2023/09/02 05:32:08;;;;;;;73.85;14.35;;;;;;;16.73;89.83;98533.13;4897530;29;20047;-74
2023/09/02 05:34:33;;;;;;;14.00;8.55;;;;;;;16.80;89.43;98541.81;4897747;29;20029;-74
2023/09/02 05:36:59;;;;;;;16.73;9.18;;;;;;;16.83;90.09;98544.78;4897669;29;20033;-74
2023/09/02 05:39:25;;;;;;;22.77;9.98;;;;;;;16.78;90.33;98530.41;4897596;29;20041;-74
2023/09/02 05:41:50;;;;;;;15.85;9.95;;;;;;;16.81;90.26;98529.84;4897443;29;20116;-74
2023/09/02 05:44:15;;;;;;;26.73;12.23;;;;;;;16.73;90.44;98508.66;4897398;29;20044;-75
2023/09/02 05:46:42;;;;;;;27.50;14.45;;;;;;;16.97;90.42;98539.56;4897894;29;20039;-77
2023/09/02 05:49:07;;;;;;;28.23;14.52;;;;;;;17.05;90.41;98548.00;4882888;29;20123;-73
2023/09/02 05:51:32;;;;;;;48.42;16.15;;;;;;;17.03;90.66;98538.50;4881731;29;20072;-74
2023/09/02 05:53:58;;;;;;;23.35;13.50;;;;;;;17.03;90.66;98530.31;4881470;29;20035;-74
2023/09/02 05:56:23;;;;;;;28.27;14.80;;;;;;;17.26;90.40;98548.75;4881561;29;20584;-75
2023/09/02 05:58:49;;;;;;;36.25;15.52;;;;;;;17.24;90.41;98534.59;4881596;29;20036;-75
2023/09/02 06:01:14;;;;;;;37.58;14.07;;;;;;;17.38;90.47;98551.13;4881127;29;20116;-74
2023/09/02 06:03:41;;;;;;;27.48;14.07;;;;;;;17.22;90.37;98532.13;4897091;29;20024;-74
2023/09/02 06:06:12;;;;;;;35.45;14.18;;;;;;;17.19;89.93;98516.38;4896729;29;20064;-73
2023/09/02 06:08:38;;;;;;;77.50;16.98;;;;;;;17.38;89.61;98543.78;4896934;29;20048;-73
2023/09/02 06:11:04;;;;;;;28.80;13.85;;;;;;;17.35;90.01;98547.06;4896861;29;20029;-75
2023/09/02 06:13:29;;;;;;;27.38;12.85;;;;;;;17.34;89.75;98539.97;4896995;29;20455;-74
2023/09/02 06:16:03;;;;;;;28.67;12.40;;;;;;;17.38;89.69;98556.59;4897049;29;20020;-74
2023/09/02 06:18:28;;;;;;;25.40;13.05;;;;;;;17.38;89.50;98523.91;4881229;29;20048;-74
2023/09/02 06:20:54;;;;;;;22.15;12.90;;;;;;;17.55;89.02;98551.63;4888065;29;20043;-74
2023/09/02 06:23:19;;;;;;;21.45;12.80;;;;;;;17.51;89.29;98529.59;4896491;29;20044;-75
2023/09/02 06:25:53;;;;;;;28.70;13.75;;;;;;;17.60;89.16;98533.34;4896748;29;20020;-74
2023/09/02 06:28:19;;;;;;;22.73;13.32;;;;;;;17.40;88.60;98508.94;4881124;29;20056;-75
2023/09/02 06:30:44;;;;;;;16.08;11.27;;;;;;;17.47;88.94;98517.59;4882287;29;20468;-74
2023/09/02 06:33:09;;;;;;;19.20;11.88;;;;;;;17.55;88.42;98511.56;4880803;29;20037;-74
2023/09/02 06:35:35;;;;;;;16.35;11.57;;;;;;;17.68;88.34;98529.22;4880786;29;20028;-74
2023/09/02 06:38:00;;;;;;;24.05;13.38;;;;;;;17.80;88.62;98544.13;4896480;29;20049;-74
2023/09/02 06:40:29;;;;;;;17.80;12.13;;;;;;;17.79;88.39;98545.22;4897648;29;20134;-74
2023/09/02 06:42:54;;;;;;;16.45;11.48;;;;;;;17.79;88.60;98553.38;4882729;29;20123;-74
2023/09/02 06:45:19;;;;;;;19.33;12.02;;;;;;;17.77;88.24;98550.13;4875253;29;20036;-74
2023/09/02 06:47:45;;;;;;;15.00;10.98;;;;;;;17.84;87.71;98545.19;4896291;29;20480;-75
2023/09/02 06:50:10;;;;;;;13.77;10.43;;;;;;;17.82;87.98;98541.13;4894244;29;20041;-74
2023/09/02 06:52:35;;;;;;;15.20;11.60;;;;;;;18.07;87.93;98556.47;4880350;29;20083;-74
2023/09/02 06:55:03;;;;;;;13.10;10.48;;;;;;;18.03;87.30;98553.50;4897397;29;20033;-73
2023/09/02 06:57:29;;;;;;;14.10;10.75;;;;;;;18.01;87.36;98549.44;4897379;29;20037;-73
2023/09/02 06:59:54;;;;;;;12.32;9.75;;;;;;;17.99;87.56;98536.09;4880501;29;20475;-73
2023/09/02 07:02:20;;;;;;;12.30;9.77;;;;;;;18.21;87.17;98576.53;4896054;29;20139;-74
2023/09/02 07:04:48;;;;;;;13.15;10.63;;;;;;;17.93;86.90;98535.31;4895251;29;20028;-73
2023/09/02 07:07:13;;;;;;;12.30;10.23;;;;;;;18.06;86.38;98546.69;4894818;29;20040;-74
2023/09/02 07:09:39;;;;;;;11.75;9.25;;;;;;;18.40;86.35;98575.56;4883518;29;20039;-74
2023/09/02 07:12:04;;;;;;;10.10;8.95;;;;;;;18.36;85.68;98568.25;4892693;29;20041;-74
2023/09/02 07:14:30;;;;;;;10.52;8.52;;;;;;;18.39;85.86;98575.88;4896518;29;20028;-74
2023/09/02 07:16:55;;;;;;;9.15;8.23;;;;;;;18.45;85.28;98588.34;4896468;29;20059;-73
2023/09/02 07:19:21;;;;;;;8.48;7.68;;;;;;;18.44;85.61;98586.72;4879637;29;20032;-74
2023/09/02 07:21:46;;;;;;;9.52;7.35;;;;;;;18.47;85.08;98578.81;4896793;29;20402;-74
2023/09/02 07:24:11;;;;;;;9.40;7.65;;;;;;;18.49;84.93;98575.78;4896866;29;20112;-74
2023/09/02 07:26:37;;;;;;;8.32;7.45;;;;;;;18.70;84.41;98579.97;4896905;29;20139;-73
2023/09/02 07:29:02;;;;;;;8.05;7.25;;;;;;;18.86;83.92;98600.53;4895671;29;20024;-75
2023/09/02 07:31:27;;;;;;;8.35;6.22;;;;;;;18.72;84.09;98583.22;4895549;29;20084;-71
2023/09/02 07:33:53;;;;;;;6.60;5.97;;;;;;;18.77;82.67;98569.53;4895602;29;20056;-72
2023/09/02 07:36:18;;;;;;;6.35;5.85;;;;;;;19.01;82.59;98600.41;4880020;29;20062;-74
2023/09/02 07:38:46;;;;;;;7.60;6.75;;;;;;;19.09;82.51;98605.22;4895483;29;20162;-71
2023/09/02 07:41:12;;;;;;;7.53;6.72;;;;;;;19.06;82.44;98589.44;4895428;29;20123;-72
2023/09/02 07:43:37;;;;;;;7.45;6.75;;;;;;;19.09;82.16;98588.84;4895459;29;20119;-72
2023/09/02 07:46:03;;;;;;;6.90;6.30;;;;;;;19.12;81.99;98592.91;4895482;29;20120;-72
2023/09/02 07:48:28;;;;;;;6.70;6.10;;;;;;;19.27;81.70;98596.31;4895450;29;20432;-71
2023/09/02 07:50:53;;;;;;;6.30;5.57;;;;;;;19.39;81.61;98606.03;4879660;29;20043;-72
2023/09/02 07:53:19;;;;;;;5.78;5.28;;;;;;;19.37;81.19;98602.78;4879113;29;20866;-72
2023/09/02 07:55:44;;;;;;;5.68;5.15;;;;;;;19.43;80.79;98616.09;4910331;29;20509;-71
2023/09/02 07:58:09;;;;;;;7.28;6.57;;;;;;;19.29;81.16;98610.47;4879478;29;20032;-72
2023/09/02 08:00:36;;;;;;;9.55;7.68;;;;;;;19.26;81.77;98635.63;4895249;29;20047;-72
2023/09/02 08:03:02;;;;;;;10.02;8.65;;;;;;;19.03;82.38;98639.16;4895069;29;20024;-72
2023/09/02 08:05:27;;;;;;;9.73;8.75;;;;;;;18.85;82.65;98631.69;4896168;29;20313;-72
2023/09/02 08:07:53;;;;;;;9.77;8.80;;;;;;;18.77;82.70;98651.41;4895209;29;20024;-72
2023/09/02 08:10:19;;;;;;;9.90;8.90;;;;;;;18.68;83.07;98639.47;4890309;29;20092;-74
2023/09/02 08:12:45;;;;;;;9.82;8.82;;;;;;;18.63;82.71;98644.97;4894788;29;20036;-72
2023/09/02 08:15:11;;;;;;;10.10;9.10;;;;;;;18.69;83.14;98651.22;4896143;29;20040;-71
2023/09/02 08:17:37;;;;;;;9.55;7.85;;;;;;;18.63;83.27;98640.34;4879396;29;20076;-72
2023/09/02 08:20:03;;;;;;;9.57;8.38;;;;;;;18.69;83.91;98660.22;4895203;29;20082;-72
2023/09/02 08:22:29;;;;;;;8.18;7.38;;;;;;;18.84;83.51;98657.34;4879453;29;20083;-72
2023/09/02 08:24:55;;;;;;;9.15;7.45;;;;;;;18.88;83.01;98642.00;4894894;29;20079;-74
2023/09/02 08:27:21;;;;;;;7.25;6.55;;;;;;;19.04;82.47;98646.22;4894890;29;20024;-72
2023/09/02 08:29:46;;;;;;;7.40;6.07;;;;;;;19.10;82.16;98645.09;4897256;29;20036;-72
2023/09/02 08:32:11;;;;;;;7.07;6.07;;;;;;;19.17;81.75;98651.03;4899775;29;20146;-72
2023/09/02 08:34:37;;;;;;;6.05;5.55;;;;;;;18.97;81.43;98632.13;4899315;29;20511;-71
2023/09/02 08:37:03;;;;;;;5.60;5.07;;;;;;;19.00;81.26;98645.19;4892826;29;20124;-74
2023/09/02 08:39:29;;;;;;;5.50;5.00;;;;;;;19.07;81.00;98661.22;4883070;29;20040;-73
2023/09/02 08:41:55;;;;;;;6.68;5.90;;;;;;;18.98;81.33;98665.66;4882680;29;20521;-72
2023/09/02 08:44:22;;;;;;;6.72;6.13;;;;;;;19.01;81.39;98679.56;4882795;29;20080;-72
2023/09/02 08:46:48;;;;;;;6.10;5.50;;;;;;;19.11;81.36;98684.94;4883259;29;20032;-73
2023/09/02 08:49:15;;;;;;;5.80;5.22;;;;;;;18.83;81.39;98663.91;4883074;29;20037;-72
2023/09/02 08:51:41;;;;;;;6.45;5.75;;;;;;;18.81;81.35;98679.72;4898691;29;20515;-72
2023/09/02 08:54:07;;;;;;;5.47;5.03;;;;;;;18.77;81.77;98678.69;4898453;29;20037;-72
2023/09/02 08:56:33;;;;;;;5.25;4.75;;;;;;;18.98;81.46;98696.53;4898510;29;20031;-74
2023/09/02 08:58:59;;;;;;;5.10;4.70;;;;;;;19.15;80.82;98702.38;4885106;29;20050;-74
2023/09/02 09:01:24;;;;;;;5.10;4.68;;;;;;;19.12;80.57;98683.84;4885276;29;20060;-74
2023/09/02 09:03:54;;;;;;;5.13;4.63;;;;;;;19.32;80.09;98691.81;4899468;29;20036;-74
2023/09/02 09:06:24;;;;;;;4.65;4.15;;;;;;;19.49;80.04;98698.78;4898118;29;20036;-74
2023/09/02 09:08:54;;;;;;;5.57;4.72;;;;;;;19.61;79.84;98704.66;4882387;29;20040;-74
2023/09/02 09:11:22;;;;;;;4.15;3.75;;;;;;;19.75;79.85;98705.59;4898819;29;20048;-75
2023/09/02 09:13:49;;;;;;;5.20;4.03;;;;;;;19.86;79.50;98712.59;4897145;29;20051;-74
2023/09/02 09:16:24;;;;;;;3.95;3.65;;;;;;;20.08;78.54;98723.78;4881444;29;20460;-74
2023/09/02 09:18:50;;;;;;;4.22;3.80;;;;;;;20.07;78.12;98715.88;4882409;29;20041;-72
2023/09/02 09:21:16;;;;;;;4.75;3.97;;;;;;;20.11;77.42;98714.19;4882205;29;20037;-72
2023/09/02 09:23:41;;;;;;;4.20;3.80;;;;;;;20.28;76.66;98720.00;4897773;29;20092;-72
2023/09/02 09:26:07;;;;;;;4.40;3.95;;;;;;;20.42;76.37;98713.50;4882223;29;20028;-74
2023/09/02 09:29:12;;;;;;;3.72;3.42;;;;;;;20.47;75.57;98718.06;4897883;29;20049;-74
2023/09/02 09:31:37;;;;;;;44.65;7.57;;;;;;;20.74;75.39;98728.38;4806055;29;20480;-73
2023/09/02 09:34:03;;;;;;;6.38;4.13;;;;;;;20.81;74.90;98712.38;4871855;29;20043;-74
2023/09/02 09:36:30;;;;;;;5.50;4.65;;;;;;;20.75;73.64;98724.53;4897581;29;20410;-72
2023/09/02 09:38:57;;;;;;;5.50;5.00;;;;;;;20.53;73.53;98723.22;4897642;29;20024;-73
2023/09/02 09:41:25;;;;;;;5.75;5.25;;;;;;;20.36;73.86;98722.91;4865753;29;20137;-72
2023/09/02 09:44:04;;;;;;;4.43;4.10;;;;;;;20.33;74.29;98722.66;4882171;29;20080;-72
2023/09/02 09:46:30;;;;;;;4.35;3.95;;;;;;;20.20;74.88;98718.72;4897467;29;20123;-72
2023/09/02 09:49:01;;;;;;;4.20;3.80;;;;;;;20.34;74.86;98719.66;4882384;29;20081;-72
2023/09/02 09:51:27;;;;;;;4.13;3.83;;;;;;;20.72;73.86;98736.06;4897247;29;20502;-72
2023/09/02 09:53:54;;;;;;;4.78;4.38;;;;;;;20.79;72.83;98714.59;4881691;29;20044;-72
2023/09/02 09:56:20;;;;;;;3.90;3.60;;;;;;;20.91;72.57;98706.75;4898563;29;20395;-74
2023/09/02 09:58:46;;;;;;;4.32;3.92;;;;;;;20.84;73.05;98714.53;4881640;29;20036;-72
2023/09/02 10:01:20;;;;;;;4.78;3.70;;;;;;;21.00;73.18;98729.59;4881253;29;20044;-72
2023/09/02 10:03:45;;;;;;;4.18;3.88;;;;;;;20.92;72.60;98717.38;4881491;29;20048;-72
2023/09/02 10:06:10;;;;;;;3.83;3.50;;;;;;;20.93;72.97;98731.91;4898680;29;20060;-72
2023/09/02 10:08:56;;;;;;;4.65;3.85;;;;;;;21.06;71.26;98714.72;4898403;29;20377;-72
2023/09/02 10:11:23;;;;;;;3.95;3.65;;;;;;;21.26;70.88;98733.56;4898143;29;20081;-72
2023/09/02 10:13:50;;;;;;;4.13;3.40;;;;;;;21.37;71.53;98743.25;4896896;29;20032;-72
2023/09/02 10:16:16;;;;;;;3.92;3.63;;;;;;;21.35;69.94;98734.50;4881491;29;20044;-73
2023/09/02 10:18:42;;;;;;;3.08;2.88;;;;;;;21.36;70.30;98747.06;4896956;29;20031;-72
2023/09/02 10:21:08;;;;;;;3.55;3.25;;;;;;;21.33;70.12;98734.00;4893703;29;20115;-73
2023/09/02 10:23:35;;;;;;;4.18;3.40;;;;;;;21.30;70.95;98731.84;4895187;29;20527;-72
2023/09/02 10:26:08;;;;;;;3.90;3.47;;;;;;;21.26;70.77;98736.31;4880599;29;20089;-72
2023/09/02 10:28:38;;;;;;;3.25;2.67;;;;;;;21.58;70.30;98729.97;4880700;29;20491;-72
2023/09/02 10:31:07;;;;;;;2.78;2.58;;;;;;;21.93;69.52;98724.66;4896792;29;20040;-72
2023/09/02 10:33:45;;;;;;;5.22;3.45;;;;;;;22.17;68.42;98734.59;4881017;29;20032;-71
2023/09/02 10:36:14;;;;;;;3.92;3.30;;;;;;;22.28;68.18;98730.50;4880745;29;20040;-71
2023/09/02 10:38:44;;;;;;;3.03;2.83;;;;;;;22.32;67.65;98728.75;4864400;29;20471;-72
2023/09/02 10:41:14;;;;;;;3.45;3.15;;;;;;;22.34;67.00;98729.25;4895877;29;20040;-71
2023/09/02 10:43:41;;;;;;;3.97;3.60;;;;;;;22.38;67.02;98719.31;4880927;29;20051;-71
2023/09/02 10:46:10;;;;;;;3.85;3.55;;;;;;;22.57;66.32;98725.44;4896438;29;20039;-73
2023/09/02 10:48:40;;;;;;;6.43;4.78;;;;;;;22.75;66.75;98724.53;4896554;29;20534;-73
2023/09/02 10:51:07;;;;;;;3.90;3.50;;;;;;;22.81;66.60;98726.03;4865335;29;20041;-71
2023/09/02 10:53:47;;;;;;;3.40;3.17;;;;;;;22.66;67.08;98732.69;4879754;29;20468;-71
2023/09/02 10:56:30;;;;;;;3.15;2.80;;;;;;;22.63;66.97;98738.00;4897453;29;20037;-72
2023/09/02 10:59:00;;;;;;;2.78;2.58;;;;;;;22.88;66.20;98733.81;4896106;29;20093;-71
2023/09/02 11:01:25;;;;;;;4.00;2.65;;;;;;;22.88;65.22;98718.16;4880270;29;20111;-71
2023/09/02 11:03:54;;;;;;;3.05;2.40;;;;;;;22.91;66.09;98701.06;4896153;29;20153;-72
2023/09/02 11:06:20;;;;;;;2.63;2.40;;;;;;;22.86;66.90;98720.41;4880385;29;20055;-73
2023/09/02 11:08:50;;;;;;;3.15;2.88;;;;;;;22.95;64.89;98712.22;4896057;29;20507;-71
2023/09/02 11:11:19;;;;;;;3.13;2.80;;;;;;;22.82;66.31;98719.41;4895616;29;20051;-73
2023/09/02 11:14:06;;;;;;;3.03;2.80;;;;;;;22.68;66.45;98729.63;4894776;29;20033;-74
2023/09/02 11:16:33;;;;;;;3.60;2.80;;;;;;;22.70;65.98;98721.91;4895427;29;20105;-74
2023/09/02 11:19:00;;;;;;;3.35;3.05;;;;;;;22.86;66.81;98720.41;4894183;29;20547;-75
2023/09/02 11:21:40;;;;;;;3.13;2.83;;;;;;;22.63;67.73;98738.00;4894247;29;20079;-71
2023/09/02 11:24:16;;;;;;;2.97;2.50;;;;;;;22.47;67.71;98725.69;4885832;29;20699;-71
2023/09/02 11:26:58;;;;;;;2.58;2.38;;;;;;;22.25;68.26;98720.94;4896886;29;20044;-75
2023/09/02 11:29:30;;;;;;;2.85;2.65;;;;;;;22.72;67.23;98716.91;4895823;29;20051;-73